Flight Track Log - Related Links

Times and Time Zones

All times are in EDT time to prevent confusion due to time zone crossing. See the N288PA flight status page for this flight to view local times or setup timezone preferences in your user account.

Time Position Orientation Groundspeed Altitude Reporting Facility
EDT Latitude Longitude Course Direction KTS MPH feet Rate Location/Type
Thu 12:07:48 PM 33.1833 -111.8167 90° East 88 101 4,900  Level Phoenix TRACON
Thu 12:08:31 PM 33.1833 -111.8000 90° East 93 107 5,200 321 Climbing Phoenix TRACON
Thu 12:09:40 PM 33.1583 -111.7908 163° South 92 106 5,500 137 Climbing Albuquerque Center
Thu 12:10:42 PM 33.1325 -111.7686 144° Southeast 111 128 5,500  Level Albuquerque Center
Thu 12:11:44 PM 33.0969 -111.7489 155° Southeast 116 133 5,500 -48 Level Albuquerque Center
Thu 12:12:46 PM 33.0706 -111.7286 147° Southeast 113 130 5,400 -48 Descending Albuquerque Center
Thu 12:13:48 PM 33.0417 -111.7108 153° Southeast 117 135 5,400 48 Level Albuquerque Center
Thu 12:14:51 PM 33.0144 -111.6956 155° Southeast 109 125 5,500 48 Climbing Albuquerque Center
Thu 12:15:53 PM 32.9867 -111.6789 153° Southeast 112 129 5,500  Level Albuquerque Center
Thu 12:16:55 PM 32.9561 -111.6664 161° South 116 133 5,500 -48 Level Albuquerque Center
Thu 12:17:57 PM 32.9208 -111.6569 167° South 112 129 5,400 -48 Descending Albuquerque Center
Thu 12:18:59 PM 32.8889 -111.6700 199° South 118 136 5,400  Level Albuquerque Center
Thu 12:20:01 PM 32.8569 -111.6744 187° South 116 133 5,400  Level Albuquerque Center
Thu 12:21:03 PM 32.8258 -111.6756 182° South 114 131 5,400 48 Level Albuquerque Center
Thu 12:22:05 PM 32.7939 -111.6761 181° South 115 132 5,500 48 Climbing Albuquerque Center
Thu 12:23:07 PM 32.7564 -111.6736 177° South 113 130 5,500  Level Albuquerque Center
Thu 12:24:09 PM 32.7469 -111.6381 108° East 114 131 5,500  Level Albuquerque Center
Thu 12:25:11 PM 32.7383 -111.6028 106° East 113 130 5,500 -48 Level Albuquerque Center
Thu 12:30:45 PM 32.6660 -111.4110 106° East 115 132 -54 Descending FlightAware ADS-B
Thu 12:31:05 PM 32.6600 -111.4000 123° Southeast 112 129 1,333 Level FlightAware ADS-B
Thu 12:31:24 PM 32.6550 -111.3910 123° Southeast 112 129 1,463 Level FlightAware ADS-B
Thu 12:31:49 PM 32.6500 -111.3790 116° Southeast 112 129 1,613 Level FlightAware ADS-B
Thu 12:32:31 PM 32.6410 -111.3540 113° Southeast 108 124 1,863 Level FlightAware ADS-B
Thu 12:32:45 PM 32.6380 -111.3460 114° Southeast 110 127 2,521 Level FlightAware ADS-B
Thu 12:33:05 PM 32.6320 -111.3350 123° Southeast 113 130 2,857 Level FlightAware ADS-B
Thu 12:33:27 PM 32.6260 -111.3240 123° Southeast 107 123 3,529 Level FlightAware ADS-B
Thu 12:33:52 PM 32.6200 -111.3130 123° Southeast 107 123 4,762 Level FlightAware ADS-B
Thu 12:34:30 PM 32.6131 -111.2994 123° Southeast 109 125 5,000 2,640 Climbing Albuquerque Center
Thu 12:35:32 PM 32.5883 -111.2672 132° Southeast 111 128 4,400 -293 Descending Albuquerque Center
Thu 12:42:17 PM 32.4240 -111.2030 132° Southeast 2,600 -252 Descending FlightAware ADS-B
Thu 12:42:41 PM 32.4270 -111.2170 284° West 111 128 2,600 -85 Level FlightAware ADS-B
Thu 12:43:28 PM 32.4310 -111.2400 282° West 111 128 2,500 -128 Descending FlightAware ADS-B

Login

Don't have an account? Register now (free) for customized features, flight alerts, and more!